Time;durP1;ratioP1;P1;durP2;ratioP2;P2;SDS_P1;SDS_P2;PMS_P1;PMS_P2;Temp;Humidity;BMP_temperature;BMP_pressure;BME280_temperature;BME280_humidity;BME280_pressure;Samples;Min_cycle;Max_cycle;Signal;HPM_P1;HPM_P2
2023/03/08 00:00:42;;;;;;;13.05;3.08;;;;;;;5.08;75.55;98008.50;7400347;19;20070;-58
2023/03/08 00:03:13;;;;;;;14.38;3.88;;;;;;;5.22;75.78;98009.63;7399105;19;20014;-58
2023/03/08 00:05:39;;;;;;;9.70;4.40;;;;;;;4.65;78.49;98005.91;7399057;19;20010;-58
2023/03/08 00:08:06;;;;;;;5.70;2.90;;;;;;;4.91;77.87;98007.53;7398648;19;20018;-58
2023/03/08 00:10:32;;;;;;;6.85;3.60;;;;;;;5.06;77.23;98007.44;7398868;19;20017;-58
2023/03/08 00:12:58;;;;;;;4.07;3.20;;;;;;;5.33;76.50;98009.75;7399886;19;20563;-58
2023/03/08 00:15:24;;;;;;;2.30;2.15;;;;;;;4.82;81.41;98006.88;7403129;19;20074;-58
2023/03/08 00:17:51;;;;;;;4.32;3.13;;;;;;;1.67;96.67;98004.34;7397012;19;20015;-58
2023/03/08 00:20:17;;;;;;;1.95;1.85;;;;;;;5.13;85.30;98001.53;7398509;19;20031;-58
2023/03/08 00:22:43;;;;;;;3.50;3.13;;;;;;;3.72;91.59;97995.72;7398353;19;20010;-58
2023/03/08 00:25:10;;;;;;;3.33;3.13;;;;;;;3.54;93.42;97998.63;7398483;19;20018;-58
2023/03/08 00:27:36;;;;;;;2.38;1.85;;;;;;;3.88;93.97;97995.22;7396518;19;20006;-58
2023/03/08 00:30:05;;;;;;;1.67;1.20;;;;;;;5.52;78.21;97983.41;7398008;19;20493;-58
2023/03/08 00:32:32;;;;;;;9.65;3.25;;;;;;;4.08;87.42;97987.03;7402091;19;20034;-58
2023/03/08 00:34:58;;;;;;;16.65;4.35;;;;;;;3.68;91.86;97987.63;7397587;19;20415;-58
2023/03/08 00:37:24;;;;;;;1.77;1.50;;;;;;;3.64;92.79;97986.28;7396416;19;20015;-58
2023/03/08 00:39:51;;;;;;;2.13;1.92;;;;;;;3.58;94.17;97980.69;7397339;19;20023;-58
2023/03/08 00:42:18;;;;;;;1.85;1.80;;;;;;;4.00;93.27;97979.66;7401003;19;20520;-58
2023/03/08 00:44:45;;;;;;;1.35;1.35;;;;;;;3.60;94.41;97982.97;7394790;19;20014;-58
2023/03/08 00:47:11;;;;;;;1.60;1.50;;;;;;;4.02;92.39;97980.69;7395861;19;20074;-58
2023/03/08 00:49:37;;;;;;;13.23;3.53;;;;;;;4.30;92.67;97975.59;7395857;19;20022;-58
2023/03/08 00:52:03;;;;;;;9.38;2.78;;;;;;;4.36;91.21;97974.44;7400116;19;20018;-58
2023/03/08 00:54:29;;;;;;;2.83;2.63;;;;;;;4.90;86.71;97980.41;7397042;19;20014;-58
2023/03/08 00:56:56;;;;;;;9.05;3.08;;;;;;;5.01;86.09;97973.03;7395375;19;20010;-58
2023/03/08 00:59:22;;;;;;;3.20;2.53;;;;;;;4.90;85.87;97964.63;7393739;19;20027;-58
2023/03/08 01:01:49;;;;;;;6.03;2.83;;;;;;;5.72;82.34;97966.75;7398025;19;20011;-58
2023/03/08 01:04:16;;;;;;;23.73;4.00;;;;;;;5.22;84.47;97959.97;7397295;19;20020;-58
2023/03/08 01:06:42;;;;;;;1.95;1.48;;;;;;;5.09;85.54;97963.09;7395624;19;20011;-58
2023/03/08 01:09:10;;;;;;;2.15;2.05;;;;;;;6.88;76.70;97955.75;7396338;19;20018;-58
2023/03/08 01:11:38;;;;;;;12.85;3.92;;;;;;;7.08;75.48;97947.25;7397226;19;20011;-58
2023/03/08 01:14:09;;;;;;;3.40;2.45;;;;;;;6.26;75.78;97955.91;7399037;19;20525;-58
2023/03/08 01:16:35;;;;;;;1.88;1.77;;;;;;;6.56;75.80;97948.81;7394962;19;20349;-58
2023/03/08 01:19:03;;;;;;;5.57;3.90;;;;;;;7.11;73.54;97943.50;7395749;19;20010;-58
2023/03/08 01:21:30;;;;;;;1.58;1.48;;;;;;;6.61;74.81;97943.28;7397422;19;20390;-58
2023/03/08 01:23:57;;;;;;;0.50;0.50;;;;;;;6.51;75.13;97933.69;7396517;19;20014;-58
2023/03/08 01:26:25;;;;;;;7.13;2.38;;;;;;;6.34;74.88;97929.31;7394051;19;20018;-58
2023/03/08 01:28:56;;;;;;;7.03;3.22;;;;;;;6.78;74.73;97918.47;7396350;19;20017;-58
2023/03/08 01:31:25;;;;;;;2.00;1.90;;;;;;;6.17;75.24;97925.69;7398630;19;20018;-58
2023/03/08 01:33:53;;;;;;;3.17;2.17;;;;;;;6.17;76.95;97922.94;7394678;19;20011;-58
2023/03/08 01:36:22;;;;;;;2.05;1.77;;;;;;;6.13;77.81;97915.63;7394454;19;20018;-58
2023/03/08 01:38:49;;;;;;;2.85;2.63;;;;;;;5.85;79.55;97914.66;7393394;19;20031;-58
2023/03/08 01:41:21;;;;;;;2.05;1.50;;;;;;;5.56;81.44;97906.63;7397011;19;20467;-58
2023/03/08 01:43:49;;;;;;;11.20;2.38;;;;;;;6.05;79.13;97903.53;7395682;19;20490;-58
2023/03/08 01:46:28;;;;;;;1.65;1.55;;;;;;;5.82;81.91;97901.81;7394286;19;20014;-58
2023/03/08 01:49:24;;;;;;;1.45;1.45;;;;;;;5.62;82.10;97899.16;7393482;19;20039;-58
2023/03/08 01:51:54;;;;;;;9.02;2.50;;;;;;;5.16;86.85;97885.44;7396246;19;20018;-58
2023/03/08 01:55:00;;;;;;;1.52;1.45;;;;;;;6.34;81.35;97874.03;7395425;19;20336;-58
2023/03/08 01:57:37;;;;;;;0.75;0.75;;;;;;;5.15;86.19;97872.13;7395199;19;20036;-59
2023/03/08 02:00:17;;;;;;;2.28;2.22;;;;;;;5.50;86.43;97877.47;7394968;19;20026;-58
2023/03/08 02:02:49;;;;;;;6.90;1.45;;;;;;;5.86;84.76;97863.72;7394676;19;20018;-58
2023/03/08 02:05:16;;;;;;;0.85;0.85;;;;;;;5.87;85.09;97859.69;7392949;19;20011;-58
2023/03/08 02:07:45;;;;;;;0.63;0.63;;;;;;;5.65;84.07;97853.97;7393796;19;20014;-58
2023/03/08 02:10:12;;;;;;;1.23;1.23;;;;;;;6.78;79.01;97841.00;7392862;19;20039;-58
2023/03/08 02:12:39;;;;;;;2.30;2.20;;;;;;;6.75;78.28;97839.25;7393488;19;21393;-58
2023/03/08 02:15:09;;;;;;;1.10;0.90;;;;;;;6.84;78.02;97839.03;7397199;19;20086;-58
2023/03/08 02:17:41;;;;;;;1.00;1.00;;;;;;;6.97;77.44;97833.78;7392482;19;20010;-58
2023/03/08 02:20:11;;;;;;;1.30;0.70;;;;;;;7.28;74.64;97825.25;7392547;19;20356;-58
2023/03/08 02:22:41;;;;;;;6.05;1.25;;;;;;;7.10;75.13;97820.22;7393319;19;20367;-58
2023/03/08 02:25:16;;;;;;;0.63;0.63;;;;;;;6.90;75.73;97823.22;7392822;19;20018;-58
2023/03/08 02:27:43;;;;;;;2.28;1.23;;;;;;;6.59;75.91;97813.06;7394138;19;20018;-58
2023/03/08 02:30:12;;;;;;;1.20;1.20;;;;;;;5.82;82.26;97810.69;7392924;19;20035;-58
2023/03/08 02:32:38;;;;;;;0.65;0.65;;;;;;;6.11;80.22;97806.81;7392220;19;20011;-58
2023/03/08 02:35:04;;;;;;;0.98;0.98;;;;;;;5.75;82.39;97808.38;7393483;19;20471;-58
2023/03/08 02:37:33;;;;;;;0.70;0.70;;;;;;;5.62;84.54;97802.50;7393336;19;20448;-58
2023/03/08 02:40:01;;;;;;;0.65;0.65;;;;;;;5.58;85.40;97792.94;7392579;19;20018;-58
2023/03/08 02:42:27;;;;;;;1.60;1.17;;;;;;;6.49;82.93;97788.91;7397746;19;20705;-58
2023/03/08 02:44:53;;;;;;;0.63;0.63;;;;;;;6.76;75.79;97788.97;7393124;19;20023;-58
2023/03/08 02:47:19;;;;;;;0.40;0.40;;;;;;;5.82;82.60;97785.81;7393882;19;20007;-58
2023/03/08 02:49:46;;;;;;;6.13;1.48;;;;;;;6.07;82.85;97784.97;7391805;19;20124;-58
2023/03/08 02:52:12;;;;;;;0.60;0.60;;;;;;;5.78;80.95;97788.03;7394341;19;20034;-58
2023/03/08 02:54:39;;;;;;;0.52;0.52;;;;;;;5.55;86.77;97782.88;7393458;19;20011;-58
2023/03/08 02:57:06;;;;;;;0.65;0.65;;;;;;;6.01;86.02;97781.44;7391764;19;20024;-58
2023/03/08 02:59:34;;;;;;;4.10;1.48;;;;;;;6.35;83.87;97776.03;7389425;19;20525;-58
2023/03/08 03:02:01;;;;;;;0.70;0.70;;;;;;;5.88;84.29;97766.53;7394651;19;20475;-58
2023/03/08 03:04:32;;;;;;;0.47;0.47;;;;;;;5.49;88.33;97760.75;7391216;19;20420;-58
2023/03/08 03:07:00;;;;;;;7.45;1.25;;;;;;;5.21;91.47;97759.81;7391878;19;20042;-58
2023/03/08 03:09:26;;;;;;;0.80;0.80;;;;;;;5.38;92.90;97760.69;7391685;19;20034;-58
2023/03/08 03:11:53;;;;;;;1.27;1.17;;;;;;;6.23;89.37;97755.13;7393554;19;20011;-58
2023/03/08 03:14:20;;;;;;;1.20;1.20;;;;;;;7.55;79.55;97749.75;7393625;19;20011;-58
2023/03/08 03:16:46;;;;;;;1.58;0.98;;;;;;;7.15;78.72;97736.44;7390655;19;20035;-58
2023/03/08 03:19:12;;;;;;;0.60;0.60;;;;;;;7.25;78.16;97734.16;7391645;19;20018;-58
2023/03/08 03:21:40;;;;;;;0.60;0.60;;;;;;;8.32;73.67;97728.59;7393671;19;20010;-58
2023/03/08 03:24:06;;;;;;;0.40;0.40;;;;;;;8.67;71.75;97725.88;7390140;19;20467;-58
2023/03/08 03:26:41;;;;;;;0.60;0.60;;;;;;;8.46;70.95;97721.22;7391260;19;20031;-58
2023/03/08 03:29:07;;;;;;;0.80;0.80;;;;;;;8.56;70.28;97720.41;7391572;19;20027;-58
2023/03/08 03:31:36;;;;;;;0.30;0.30;;;;;;;8.71;69.33;97706.94;7393832;19;20011;-58
2023/03/08 03:34:03;;;;;;;0.60;0.60;;;;;;;8.29;70.21;97707.44;7392182;19;20058;-58
2023/03/08 03:36:29;;;;;;;0.63;0.63;;;;;;;8.78;68.89;97708.41;7392411;19;20006;-58
2023/03/08 03:38:57;;;;;;;0.40;0.40;;;;;;;7.77;69.68;97701.09;7390061;19;20022;-58
2023/03/08 03:41:24;;;;;;;1.17;1.17;;;;;;;7.63;71.65;97702.88;7393662;19;20015;-58
2023/03/08 03:43:59;;;;;;;0.52;0.52;;;;;;;8.38;69.55;97704.38;7393266;19;20018;-58
2023/03/08 03:46:25;;;;;;;0.55;0.55;;;;;;;7.95;71.35;97709.56;7390179;19;20023;-58
2023/03/08 03:48:54;;;;;;;0.77;0.77;;;;;;;6.53;73.11;97700.94;7390792;19;20070;-58
2023/03/08 03:51:22;;;;;;;0.80;0.80;;;;;;;6.23;76.57;97697.09;7392730;19;20014;-58
2023/03/08 03:53:57;;;;;;;0.77;0.77;;;;;;;6.72;76.29;97699.19;7389652;19;20369;-58
2023/03/08 03:56:26;;;;;;;2.22;2.05;;;;;;;8.18;70.46;97690.84;7390159;19;20011;-58
2023/03/08 03:58:55;;;;;;;0.70;0.70;;;;;;;8.11;69.50;97686.59;7387925;19;20502;-58
2023/03/08 04:01:26;;;;;;;0.55;0.55;;;;;;;8.13;68.58;97683.28;7392256;19;20459;-58
2023/03/08 04:03:58;;;;;;;0.90;0.73;;;;;;;7.57;68.81;97677.97;7394814;19;20066;-58
2023/03/08 04:06:28;;;;;;;0.50;0.50;;;;;;;7.12;70.35;97681.34;7397581;19;20081;-58
2023/03/08 04:09:01;;;;;;;0.85;0.85;;;;;;;7.15;70.78;97670.00;7396989;19;20015;-58
2023/03/08 04:11:33;;;;;;;5.38;1.13;;;;;;;6.98;71.63;97677.56;7399599;19;20021;-58
2023/03/08 04:13:59;;;;;;;2.58;0.80;;;;;;;8.22;68.14;97669.13;7399360;19;20516;-58
2023/03/08 04:16:32;;;;;;;0.80;0.80;;;;;;;7.02;70.82;97667.00;7395419;19;20017;-58
2023/03/08 04:19:09;;;;;;;0.50;0.50;;;;;;;7.82;70.69;97658.75;7396106;19;20017;-58
2023/03/08 04:21:36;;;;;;;0.68;0.68;;;;;;;7.24;70.31;97661.44;7398827;19;20087;-58
2023/03/08 04:24:03;;;;;;;0.40;0.40;;;;;;;6.99;71.75;97662.50;7396300;19;20015;-58
2023/03/08 04:26:30;;;;;;;1.27;1.17;;;;;;;7.23;69.38;97651.63;7396084;19;20017;-58
2023/03/08 04:28:56;;;;;;;0.73;0.73;;;;;;;6.57;71.79;97649.66;7397600;19;20011;-58
2023/03/08 04:31:27;;;;;;;0.70;0.70;;;;;;;6.42;73.75;97643.63;7399396;19;20010;-58
2023/03/08 04:33:57;;;;;;;0.75;0.75;;;;;;;6.67;73.30;97644.66;7397269;19;20347;-58
2023/03/08 04:36:24;;;;;;;0.52;0.52;;;;;;;6.89;72.48;97637.09;7396289;19;20074;-58
2023/03/08 04:38:51;;;;;;;0.55;0.55;;;;;;;6.63;71.72;97635.81;7394933;19;20007;-58
2023/03/08 04:41:18;;;;;;;1.27;0.60;;;;;;;7.15;72.13;97631.25;7399184;19;20028;-58
2023/03/08 04:43:55;;;;;;;0.32;0.32;;;;;;;7.14;70.97;97632.53;7398941;19;20003;-58
2023/03/08 04:46:29;;;;;;;0.55;0.55;;;;;;;7.01;71.73;97637.81;7395860;19;20014;-58
2023/03/08 04:48:56;;;;;;;0.52;0.52;;;;;;;6.60;74.35;97625.78;7396588;19;20011;-58
2023/03/08 04:51:26;;;;;;;0.60;0.60;;;;;;;6.20;75.14;97626.22;7400357;19;20095;-58
2023/03/08 04:53:55;;;;;;;1.05;1.00;;;;;;;6.10;74.59;97620.97;7395230;19;20014;-58
2023/03/08 04:56:21;;;;;;;0.30;0.30;;;;;;;6.51;76.30;97612.19;7398102;19;20011;-58
2023/03/08 04:58:48;;;;;;;0.70;0.70;;;;;;;7.62;73.60;97607.94;7396257;19;20136;-58
2023/03/08 05:01:19;;;;;;;1.75;1.05;;;;;;;8.05;70.40;97608.25;7396412;19;20491;-58
2023/03/08 05:03:48;;;;;;;1.05;1.05;;;;;;;6.31;73.06;97607.66;7395450;19;20011;-58
2023/03/08 05:06:16;;;;;;;0.45;0.45;;;;;;;7.28;72.71;97609.34;7394457;19;20038;-58
2023/03/08 05:08:43;;;;;;;0.70;0.70;;;;;;;8.62;70.36;97601.81;7395258;19;20038;-58
2023/03/08 05:11:16;;;;;;;0.90;0.90;;;;;;;7.21;70.37;97600.81;7396387;19;20028;-58
2023/03/08 05:13:43;;;;;;;7.72;0.75;;;;;;;6.65;74.04;97606.41;7394993;19;20357;-58
2023/03/08 05:16:09;;;;;;;0.60;0.60;;;;;;;7.97;73.79;97592.69;7394460;19;20015;-58
2023/03/08 05:18:35;;;;;;;1.10;0.88;;;;;;;7.55;71.82;97604.97;7394382;19;20519;-58
2023/03/08 05:21:09;;;;;;;0.90;0.90;;;;;;;7.82;73.26;97606.13;7396956;19;20022;-58
2023/03/08 05:23:36;;;;;;;1.67;1.05;;;;;;;7.02;71.57;97608.88;7394678;19;20024;-58
2023/03/08 05:26:04;;;;;;;0.82;0.82;;;;;;;11.71;63.03;97595.19;7394945;19;20056;-58
2023/03/08 05:28:33;;;;;;;0.68;0.68;;;;;;;7.78;64.43;97591.75;7397093;19;20074;-58
2023/03/08 05:31:13;;;;;;;0.40;0.40;;;;;;;7.89;68.02;97588.94;7395896;19;20048;-58
2023/03/08 05:33:41;;;;;;;1.45;1.02;;;;;;;7.45;69.42;97592.69;7394992;19;20014;-58
2023/03/08 05:36:10;;;;;;;2.58;2.15;;;;;;;5.51;72.06;97603.69;7394982;19;20027;-58
2023/03/08 05:38:37;;;;;;;0.98;0.98;;;;;;;5.66;95.39;97590.44;7393086;19;20074;-58
2023/03/08 05:41:11;;;;;;;1.42;1.42;;;;;;;3.44;96.22;97590.78;7396473;19;20007;-58
2023/03/08 05:43:37;;;;;;;1.33;1.25;;;;;;;1.01;100.00;97595.75;7394367;19;20011;-58
2023/03/08 05:46:08;;;;;;;1.75;1.23;;;;;;;5.06;100.00;97577.91;7394547;19;20074;-58
2023/03/08 05:48:37;;;;;;;1.52;1.52;;;;;;;1.84;100.00;97580.19;7397830;19;20010;-58
2023/03/08 05:51:12;;;;;;;1.88;0.70;;;;;;;1.57;100.00;97572.19;7395156;19;20017;-58
2023/03/08 05:53:38;;;;;;;1.40;1.23;;;;;;;0.99;100.00;97568.06;7393842;19;20025;-58
2023/03/08 05:56:19;;;;;;;0.75;0.75;;;;;;;2.65;100.00;97568.25;7393824;19;20010;-58
2023/03/08 05:58:54;;;;;;;0.60;0.60;;;;;;;4.41;100.00;97562.44;7395331;19;20374;-58
2023/03/08 06:01:24;;;;;;;3.13;1.55;;;;;;;5.16;100.00;97548.84;7396003;19;20085;-58
2023/03/08 06:03:56;;;;;;;0.70;0.70;;;;;;;5.45;99.96;97558.75;7394109;19;20035;-58
2023/03/08 06:06:26;;;;;;;0.30;0.30;;;;;;;4.69;98.06;97554.34;7393805;19;20022;-58
2023/03/08 06:08:57;;;;;;;0.32;0.32;;;;;;;3.53;100.00;97557.59;7392925;19;20029;-58
2023/03/08 06:11:23;;;;;;;0.70;0.68;;;;;;;3.47;100.00;97556.03;7395184;19;20025;-58
2023/03/08 06:13:53;;;;;;;0.82;0.82;;;;;;;2.91;100.00;97568.34;7394276;19;20018;-58
2023/03/08 06:16:20;;;;;;;0.50;0.50;;;;;;;2.81;100.00;97556.75;7393278;19;20031;-58
2023/03/08 06:18:47;;;;;;;4.50;1.40;;;;;;;2.18;100.00;97563.03;7393026;19;20460;-58
2023/03/08 06:21:17;;;;;;;1.27;1.02;;;;;;;2.09;100.00;97571.38;7394905;19;20074;-58
2023/03/08 06:23:46;;;;;;;;;;;;;;;3.00;100.00;97560.75;7393482;19;20025;-58
2023/03/08 06:26:14;;;;;;;6.40;1.02;;;;;;;3.27;100.00;97567.06;7391697;19;19918;-58
2023/03/08 06:28:41;;;;;;;1.50;1.13;;;;;;;3.13;100.00;97562.38;7395711;19;20407;-58
2023/03/08 06:31:12;;;;;;;1.98;1.05;;;;;;;3.71;100.00;97568.31;7394922;19;20351;-58
2023/03/08 06:33:39;;;;;;;0.75;0.75;;;;;;;3.37;100.00;97560.19;7392966;19;20019;-58
2023/03/08 06:36:09;;;;;;;1.45;1.02;;;;;;;3.08;100.00;97577.56;7392653;19;20035;-58
2023/03/08 06:38:37;;;;;;;1.42;1.42;;;;;;;2.09;100.00;97574.88;7392196;19;20014;-58
2023/03/08 06:41:05;;;;;;;1.30;1.30;;;;;;;0.57;100.00;97576.38;7395185;19;20014;-58
2023/03/08 06:43:31;;;;;;;1.70;1.60;;;;;;;0.31;100.00;97577.25;7393964;19;20022;-58
2023/03/08 06:45:58;;;;;;;0.77;0.77;;;;;;;1.97;100.00;97566.94;7392521;19;20509;-58
2023/03/08 06:48:24;;;;;;;3.80;1.67;;;;;;;0.89;100.00;97563.84;7393499;19;20330;-58
2023/03/08 06:50:51;;;;;;;1.15;1.13;;;;;;;0.90;100.00;97567.38;7394001;19;20011;-58
2023/03/08 06:53:17;;;;;;;8.40;1.45;;;;;;;2.05;100.00;97566.06;7391650;19;20014;-58
2023/03/08 06:55:52;;;;;;;1.95;1.80;;;;;;;3.81;100.00;97557.91;7391807;19;20014;-58
2023/03/08 06:58:19;;;;;;;7.32;2.10;;;;;;;7.36;98.85;97552.16;7391156;19;20108;-58
2023/03/08 07:00:46;;;;;;;1.42;0.98;;;;;;;7.29;88.33;97551.97;7392128;19;20007;-58
2023/03/08 07:03:12;;;;;;;3.00;2.38;;;;;;;3.93;100.00;97556.00;7393274;19;20058;-58
2023/03/08 07:05:39;;;;;;;3.95;1.65;;;;;;;3.23;100.00;97564.50;7393951;19;20011;-58
2023/03/08 07:08:06;;;;;;;3.33;2.15;;;;;;;2.68;100.00;97567.31;7392956;19;20043;-58
2023/03/08 07:10:33;;;;;;;4.13;0.98;;;;;;;2.63;100.00;97559.72;7393773;19;20026;-58
2023/03/08 07:12:59;;;;;;;4.05;1.85;;;;;;;2.62;100.00;97558.19;7393108;19;20034;-58
2023/03/08 07:15:25;;;;;;;1.75;1.65;;;;;;;2.93;100.00;97572.13;7396927;19;20015;-58
2023/03/08 07:17:56;;;;;;;2.15;1.30;;;;;;;3.44;100.00;97570.78;7393303;19;20470;-58
2023/03/08 07:20:24;;;;;;;1.13;1.08;;;;;;;2.33;100.00;97563.78;7393400;19;20343;-58
2023/03/08 07:22:51;;;;;;;11.07;1.73;;;;;;;2.79;100.00;97567.47;7393415;19;20043;-58
2023/03/08 07:25:19;;;;;;;2.92;2.17;;;;;;;5.25;100.00;97556.91;7393465;19;20017;-58
2023/03/08 07:27:45;;;;;;;3.55;1.85;;;;;;;5.80;100.00;97553.59;7393617;19;20011;-58
2023/03/08 07:30:13;;;;;;;1.63;1.52;;;;;;;5.80;100.00;97558.34;7392750;19;20467;-58
2023/03/08 07:32:43;;;;;;;14.00;2.67;;;;;;;6.39;94.68;97555.41;7392639;19;20011;-58
2023/03/08 07:35:11;;;;;;;1.08;1.08;;;;;;;6.71;92.48;97553.88;7392380;19;20043;-58
2023/03/08 07:37:38;;;;;;;1.65;1.55;;;;;;;7.45;86.88;97542.84;7396028;19;20018;-58
2023/03/08 07:40:06;;;;;;;1.55;1.45;;;;;;;8.78;82.02;97547.44;7396236;19;20039;-58
2023/03/08 07:42:33;;;;;;;1.50;1.40;;;;;;;10.45;70.63;97536.44;7404428;19;20061;-59
2023/03/08 07:45:12;;;;;;;13.52;2.20;;;;;;;10.68;66.96;97529.22;7396697;19;20016;-58
2023/03/08 07:47:39;;;;;;;4.07;1.83;;;;;;;10.43;66.05;97532.69;7399156;19;20053;-58
2023/03/08 07:50:07;;;;;;;0.90;0.90;;;;;;;9.96;65.90;97529.59;7399696;19;20524;-58
2023/03/08 07:52:33;;;;;;;1.75;1.30;;;;;;;9.82;66.00;97522.47;7399360;19;20014;-59
2023/03/08 07:55:01;;;;;;;6.43;3.17;;;;;;;10.12;65.38;97536.97;7397269;19;20463;-58
2023/03/08 07:57:27;;;;;;;12.77;2.78;;;;;;;9.68;65.10;97537.59;7396506;19;20480;-59
2023/03/08 07:59:53;;;;;;;3.13;1.55;;;;;;;8.16;69.25;97544.44;7396488;19;20406;-58
2023/03/08 08:02:20;;;;;;;5.63;2.60;;;;;;;8.14;70.69;97540.66;7403436;19;20039;-58
2023/03/08 08:04:46;;;;;;;4.80;2.88;;;;;;;8.74;69.42;97536.63;7399301;19;20021;-58
2023/03/08 08:07:14;;;;;;;6.95;1.90;;;;;;;9.03;68.69;97537.88;7398263;19;20014;-58
2023/03/08 08:09:41;;;;;;;7.55;2.15;;;;;;;8.93;68.03;97537.44;7393891;19;20006;-58
2023/03/08 08:12:07;;;;;;;0.90;0.90;;;;;;;9.34;67.19;97542.03;7400199;19;20049;-58
2023/03/08 08:14:34;;;;;;;2.83;2.15;;;;;;;9.74;66.04;97532.69;7400436;19;20100;-58
2023/03/08 08:17:00;;;;;;;7.38;2.10;;;;;;;9.91;65.31;97536.00;7397413;19;20010;-59
2023/03/08 08:19:26;;;;;;;3.75;1.80;;;;;;;9.86;64.45;97542.38;7396553;19;20599;-59
2023/03/08 08:21:52;;;;;;;4.68;1.45;;;;;;;10.68;62.93;97547.94;7400100;19;20014;-58
2023/03/08 08:24:18;;;;;;;4.35;1.90;;;;;;;10.32;62.55;97544.00;7401810;19;20011;-58
2023/03/08 08:26:45;;;;;;;0.95;0.85;;;;;;;11.47;59.26;97543.19;7397770;19;20374;-58
2023/03/08 08:29:11;;;;;;;1.40;1.30;;;;;;;11.62;58.51;97548.94;7401204;19;20484;-58
2023/03/08 08:31:37;;;;;;;2.35;1.00;;;;;;;12.01;56.28;97543.31;7401819;19;20022;-57
2023/03/08 08:34:03;;;;;;;1.30;1.20;;;;;;;11.23;57.75;97551.75;7397588;19;20492;-57
2023/03/08 08:36:29;;;;;;;6.43;2.47;;;;;;;10.38;59.23;97556.53;7397192;19;20018;-58
2023/03/08 08:38:55;;;;;;;15.20;3.03;;;;;;;10.59;58.49;97563.00;7396660;19;20010;-58
2023/03/08 08:41:22;;;;;;;4.03;1.35;;;;;;;9.40;61.19;97562.19;7400441;19;20048;-58
2023/03/08 08:43:49;;;;;;;2.20;1.58;;;;;;;10.05;60.73;97557.00;7402299;19;20026;-58
2023/03/08 08:46:17;;;;;;;1.80;1.30;;;;;;;9.72;61.88;97557.47;7396890;19;20039;-58
2023/03/08 08:48:43;;;;;;;1.58;0.75;;;;;;;10.01;61.63;97564.91;7394836;19;20010;-58
2023/03/08 08:51:11;;;;;;;3.20;1.35;;;;;;;10.37;60.75;97557.81;7398020;19;20014;-58
2023/03/08 08:53:38;;;;;;;1.35;1.27;;;;;;;10.47;61.10;97564.50;7396717;19;20027;-58
2023/03/08 08:56:15;;;;;;;2.15;1.50;;;;;;;10.76;60.30;97571.09;7397812;19;20006;-58
2023/03/08 08:58:43;;;;;;;3.10;1.48;;;;;;;10.73;59.66;97577.72;7399411;19;20002;-58
2023/03/08 09:01:31;;;;;;;1.70;1.45;;;;;;;10.72;59.17;97567.13;7399635;19;20442;-58
2023/03/08 09:03:58;;;;;;;1.65;1.08;;;;;;;10.77;59.27;97560.69;7397158;19;20042;-58
2023/03/08 09:06:25;;;;;;;1.33;1.33;;;;;;;10.83;58.48;97558.59;7397227;19;20035;-57
2023/03/08 09:08:57;;;;;;;3.70;2.10;;;;;;;10.80;58.30;97562.44;7395626;19;20014;-58
2023/03/08 09:11:24;;;;;;;1.88;1.45;;;;;;;11.10;57.40;97562.91;7397014;19;20006;-58
2023/03/08 09:13:51;;;;;;;0.50;0.50;;;;;;;10.81;57.84;97572.28;7398099;19;20040;-58
2023/03/08 09:16:19;;;;;;;3.42;2.00;;;;;;;10.73;57.21;97560.25;7397456;19;20053;-58
2023/03/08 09:18:45;;;;;;;1.35;1.25;;;;;;;10.51;58.02;97562.16;7395410;19;20018;-58
2023/03/08 09:21:13;;;;;;;2.00;1.80;;;;;;;10.31;58.51;97556.41;7398755;19;20014;-58
2023/03/08 09:23:39;;;;;;;2.50;2.30;;;;;;;11.61;56.12;97555.78;7395964;19;20017;-58
2023/03/08 09:26:06;;;;;;;42.17;2.05;;;;;;;10.62;56.62;97561.97;7396398;19;20036;-58
2023/03/08 09:28:32;;;;;;;2.88;1.35;;;;;;;9.57;58.76;97559.94;7398095;19;20014;-58
2023/03/08 09:30:59;;;;;;;1.00;1.00;;;;;;;9.18;61.12;97555.59;7396649;19;20011;-58
2023/03/08 09:33:25;;;;;;;1.73;1.58;;;;;;;10.00;60.23;97557.09;7395062;19;20467;-58
2023/03/08 09:35:58;;;;;;;3.60;0.88;;;;;;;9.68;60.52;97554.25;7395533;19;20010;-58
2023/03/08 09:38:24;;;;;;;1.95;1.52;;;;;;;9.95;61.14;97550.34;7394714;19;20015;-57
2023/03/08 09:41:05;;;;;;;3.83;1.08;;;;;;;10.11;60.42;97551.41;7395477;19;20041;-58
2023/03/08 09:44:23;;;;;;;0.90;0.90;;;;;;;10.81;57.50;97545.19;7393626;19;20016;-57
2023/03/08 09:46:57;;;;;;;2.28;1.67;;;;;;;10.96;56.16;97553.03;7393599;19;20506;-57
2023/03/08 09:49:29;;;;;;;0.80;0.80;;;;;;;10.12;56.36;97553.66;7396103;19;20018;-57
2023/03/08 09:52:06;;;;;;;0.80;0.80;;;;;;;10.04;55.14;97547.19;7398705;19;20023;-57
2023/03/08 09:54:37;;;;;;;1.80;0.95;;;;;;;10.53;55.35;97540.09;7395896;19;20066;-57
2023/03/08 09:57:07;;;;;;;1.47;1.37;;;;;;;9.83;55.89;97555.28;7395201;19;20014;-57
2023/03/08 09:59:41;;;;;;;0.70;0.70;;;;;;;9.81;55.22;97559.91;7397556;19;20011;-57
2023/03/08 10:02:11;;;;;;;0.28;0.28;;;;;;;10.76;53.82;97548.84;7398370;19;20018;-57
2023/03/08 10:04:48;;;;;;;0.70;0.70;;;;;;;9.26;56.03;97541.88;7395492;19;20348;-57
2023/03/08 10:07:42;;;;;;;0.68;0.68;;;;;;;9.61;55.62;97543.72;7395709;19;20019;-58
2023/03/08 10:10:09;;;;;;;0.60;0.60;;;;;;;9.64;55.01;97543.41;7395482;19;20459;-57
2023/03/08 10:12:51;;;;;;;0.45;0.45;;;;;;;9.59;54.81;97541.47;7394399;19;20767;-57
2023/03/08 10:15:20;;;;;;;0.82;0.82;;;;;;;10.31;54.02;97537.66;7399274;19;20014;-57
2023/03/08 10:17:58;;;;;;;1.25;1.23;;;;;;;9.11;54.60;97536.00;7393927;19;20035;-57
2023/03/08 10:20:31;;;;;;;0.73;0.60;;;;;;;9.09;54.95;97533.75;7394939;19;20006;-57
2023/03/08 10:23:01;;;;;;;0.55;0.55;;;;;;;9.65;53.28;97544.19;7394259;19;20091;-57
2023/03/08 10:25:30;;;;;;;1.40;1.10;;;;;;;10.70;52.42;97539.06;7393877;19;20366;-57
2023/03/08 10:27:59;;;;;;;0.55;0.55;;;;;;;11.41;50.89;97539.75;7394502;19;20025;-57
2023/03/08 10:30:34;;;;;;;0.90;0.85;;;;;;;10.97;50.66;97551.75;7392294;19;20014;-57
2023/03/08 10:33:06;;;;;;;0.82;0.77;;;;;;;12.78;48.41;97537.88;7392904;19;20010;-57
2023/03/08 10:35:36;;;;;;;2.13;0.90;;;;;;;12.41;48.30;97543.88;7389418;19;20044;-57
2023/03/08 10:38:15;;;;;;;5.88;1.50;;;;;;;11.55;48.94;97549.59;7395644;19;20022;-56
2023/03/08 10:40:41;;;;;;;0.80;0.80;;;;;;;11.51;49.07;97549.19;7393789;19;20019;-57
2023/03/08 10:43:26;;;;;;;1.75;1.60;;;;;;;11.35;48.85;97550.25;7393646;19;20015;-57
2023/03/08 10:45:58;;;;;;;2.05;0.90;;;;;;;11.52;48.50;97545.09;7394366;19;20010;-57
2023/03/08 10:48:25;;;;;;;0.60;0.60;;;;;;;11.59;47.97;97541.66;7393671;19;20458;-57
2023/03/08 10:51:03;;;;;;;0.75;0.75;;;;;;;11.48;48.15;97541.88;7393239;19;20066;-57
2023/03/08 10:53:30;;;;;;;4.68;1.35;;;;;;;11.77;47.84;97538.00;7393118;19;20490;-57
2023/03/08 10:55:59;;;;;;;0.68;0.68;;;;;;;11.89;46.55;97538.53;7392528;19;20035;-57
2023/03/08 10:58:30;;;;;;;0.73;0.73;;;;;;;11.64;47.54;97535.22;7394247;19;20014;-57
2023/03/08 11:01:00;;;;;;;2.22;1.75;;;;;;;11.99;47.06;97526.38;7395294;19;20006;-56
2023/03/08 11:03:27;;;;;;;1.20;1.08;;;;;;;12.92;46.30;97519.00;7391565;19;20416;-57
2023/03/08 11:06:00;;;;;;;1.65;1.05;;;;;;;12.74;46.08;97520.72;7392450;19;20021;-56
2023/03/08 11:08:39;;;;;;;0.60;0.60;;;;;;;13.05;45.63;97527.31;7392589;19;20453;-56
2023/03/08 11:11:11;;;;;;;2.22;1.38;;;;;;;13.17;45.40;97522.91;7393543;19;20018;-56
2023/03/08 11:13:40;;;;;;;1.58;1.50;;;;;;;12.91;45.98;97525.88;7400080;19;20018;-56
2023/03/08 11:16:33;;;;;;;0.82;0.82;;;;;;;13.06;45.88;97517.63;7400396;19;20014;-57
2023/03/08 11:18:59;;;;;;;2.33;1.67;;;;;;;12.44;46.71;97525.31;7397992;19;20026;-58
2023/03/08 11:21:39;;;;;;;2.58;0.95;;;;;;;13.23;46.20;97509.53;7402555;19;20455;-58
2023/03/08 11:24:27;;;;;;;0.73;0.73;;;;;;;13.04;46.86;97513.88;7400297;19;20479;-58
2023/03/08 11:27:10;;;;;;;1.25;1.15;;;;;;;12.09;46.75;97509.91;7400297;19;20035;-58
2023/03/08 11:30:00;;;;;;;1.10;1.10;;;;;;;12.11;47.15;97505.28;7404936;19;20017;-57
2023/03/08 11:32:38;;;;;;;1.40;0.63;;;;;;;12.38;46.43;97510.75;7405354;19;20010;-57
2023/03/08 11:35:22;;;;;;;1.27;0.88;;;;;;;12.34;46.91;97508.31;7398723;19;20667;-57
2023/03/08 11:38:03;;;;;;;1.33;1.23;;;;;;;12.59;46.37;97509.44;7399815;19;20019;-57
2023/03/08 11:40:48;;;;;;;;;;;;;;;13.58;45.62;97508.78;7398883;19;20100;-57
2023/03/08 11:43:22;;;;;;;0.65;0.65;;;;;;;13.83;44.04;97497.13;7399281;19;19934;-57
2023/03/08 11:46:05;;;;;;;5.45;0.98;;;;;;;13.66;44.23;97506.03;7400123;19;20011;-57
2023/03/08 11:48:51;;;;;;;0.40;0.40;;;;;;;13.61;44.27;97496.50;7400087;19;20050;-57
2023/03/08 11:51:44;;;;;;;0.50;0.50;;;;;;;13.46;44.80;97504.81;7401541;19;20021;-57